sensor_id;sensor_type;location;lat;lon;timestamp;pressure;altitude;pressure_sealevel;temperature;humidity
28683;BME280;15862;43.062;25.626;2023-02-20T00:01:50;100131.13;;;12.69;75.05
28683;BME280;15862;43.062;25.626;2023-02-20T00:04:16;100134.09;;;12.64;76.70
28683;BME280;15862;43.062;25.626;2023-02-20T00:06:42;100136.31;;;12.69;76.79
28683;BME280;15862;43.062;25.626;2023-02-20T00:09:07;100143.88;;;12.61;75.43
28683;BME280;15862;43.062;25.626;2023-02-20T00:11:32;100136.78;;;12.74;74.38
28683;BME280;15862;43.062;25.626;2023-02-20T00:13:58;100147.50;;;12.69;75.84
28683;BME280;15862;43.062;25.626;2023-02-20T00:16:23;100150.44;;;12.65;77.07
28683;BME280;15862;43.062;25.626;2023-02-20T00:18:49;100146.00;;;12.56;76.40
28683;BME280;15862;43.062;25.626;2023-02-20T00:21:14;100129.16;;;12.39;76.42
28683;BME280;15862;43.062;25.626;2023-02-20T00:23:40;100143.28;;;12.57;75.15
28683;BME280;15862;43.062;25.626;2023-02-20T00:26:09;100130.78;;;12.62;75.98
28683;BME280;15862;43.062;25.626;2023-02-20T00:28:37;100122.91;;;12.53;75.85
28683;BME280;15862;43.062;25.626;2023-02-20T00:31:05;100116.56;;;12.46;76.61
28683;BME280;15862;43.062;25.626;2023-02-20T00:33:30;100134.47;;;12.49;77.33
28683;BME280;15862;43.062;25.626;2023-02-20T00:35:56;100125.50;;;12.31;78.48
28683;BME280;15862;43.062;25.626;2023-02-20T00:38:21;100133.63;;;12.26;80.76
28683;BME280;15862;43.062;25.626;2023-02-20T00:40:47;100137.41;;;12.22;81.00
28683;BME280;15862;43.062;25.626;2023-02-20T00:43:12;100130.00;;;12.18;80.20
28683;BME280;15862;43.062;25.626;2023-02-20T00:45:37;100138.91;;;12.14;81.02
28683;BME280;15862;43.062;25.626;2023-02-20T00:48:03;100144.56;;;12.08;81.40
28683;BME280;15862;43.062;25.626;2023-02-20T00:50:29;100151.97;;;11.91;86.17
28683;BME280;15862;43.062;25.626;2023-02-20T00:52:54;100145.94;;;11.79;85.29
28683;BME280;15862;43.062;25.626;2023-02-20T00:55:19;100141.69;;;11.78;85.23
28683;BME280;15862;43.062;25.626;2023-02-20T00:57:45;100142.59;;;11.66;85.78
28683;BME280;15862;43.062;25.626;2023-02-20T01:00:20;100140.50;;;11.71;87.72
28683;BME280;15862;43.062;25.626;2023-02-20T01:02:47;100149.78;;;11.74;86.89
28683;BME280;15862;43.062;25.626;2023-02-20T01:05:12;100143.13;;;11.82;86.44
28683;BME280;15862;43.062;25.626;2023-02-20T01:07:38;100141.44;;;11.70;86.69
28683;BME280;15862;43.062;25.626;2023-02-20T01:10:04;100144.00;;;11.70;86.92
28683;BME280;15862;43.062;25.626;2023-02-20T01:12:29;100147.56;;;11.69;86.16
28683;BME280;15862;43.062;25.626;2023-02-20T01:14:55;100137.91;;;11.71;86.21
28683;BME280;15862;43.062;25.626;2023-02-20T01:17:20;100143.78;;;11.62;87.09
28683;BME280;15862;43.062;25.626;2023-02-20T01:19:46;100139.97;;;11.55;86.67
28683;BME280;15862;43.062;25.626;2023-02-20T01:22:11;100149.50;;;11.55;87.40
28683;BME280;15862;43.062;25.626;2023-02-20T01:24:37;100147.22;;;11.50;88.42
28683;BME280;15862;43.062;25.626;2023-02-20T01:27:02;100134.63;;;11.46;88.58
28683;BME280;15862;43.062;25.626;2023-02-20T01:29:28;100138.50;;;11.41;88.53
28683;BME280;15862;43.062;25.626;2023-02-20T01:31:53;100137.25;;;11.23;90.50
28683;BME280;15862;43.062;25.626;2023-02-20T01:34:20;100143.34;;;11.22;90.94
28683;BME280;15862;43.062;25.626;2023-02-20T01:36:50;100157.72;;;11.26;90.41
28683;BME280;15862;43.062;25.626;2023-02-20T01:39:21;100140.44;;;11.03;91.96
28683;BME280;15862;43.062;25.626;2023-02-20T01:41:51;100152.03;;;10.97;93.81
28683;BME280;15862;43.062;25.626;2023-02-20T01:44:24;100147.44;;;10.90;93.78
28683;BME280;15862;43.062;25.626;2023-02-20T01:46:52;100151.97;;;10.86;94.69
28683;BME280;15862;43.062;25.626;2023-02-20T01:49:24;100134.53;;;10.77;96.52
28683;BME280;15862;43.062;25.626;2023-02-20T01:51:57;100138.53;;;10.81;95.80
28683;BME280;15862;43.062;25.626;2023-02-20T01:54:24;100131.91;;;10.90;96.38
28683;BME280;15862;43.062;25.626;2023-02-20T01:56:52;100126.66;;;10.79;97.45
28683;BME280;15862;43.062;25.626;2023-02-20T01:59:20;100128.44;;;10.78;97.37
28683;BME280;15862;43.062;25.626;2023-02-20T02:01:47;100114.06;;;10.74;98.02
28683;BME280;15862;43.062;25.626;2023-02-20T02:04:13;100120.69;;;10.78;97.64
28683;BME280;15862;43.062;25.626;2023-02-20T02:06:43;100127.13;;;10.96;95.63
28683;BME280;15862;43.062;25.626;2023-02-20T02:09:36;100121.19;;;11.07;94.89
28683;BME280;15862;43.062;25.626;2023-02-20T02:12:03;100094.13;;;11.00;94.01
28683;BME280;15862;43.062;25.626;2023-02-20T02:14:28;100103.59;;;11.12;92.36
28683;BME280;15862;43.062;25.626;2023-02-20T02:17:10;100123.53;;;11.33;91.11
28683;BME280;15862;43.062;25.626;2023-02-20T02:25:30;100115.78;;;11.10;93.19
28683;BME280;15862;43.062;25.626;2023-02-20T02:33:05;100100.78;;;10.91;91.45
28683;BME280;15862;43.062;25.626;2023-02-20T02:38:46;100130.09;;;11.03;89.90
28683;BME280;15862;43.062;25.626;2023-02-20T02:44:14;100122.78;;;10.97;89.41
28683;BME280;15862;43.062;25.626;2023-02-20T02:51:55;100132.03;;;11.12;87.88
28683;BME280;15862;43.062;25.626;2023-02-20T02:54:24;100137.91;;;11.14;87.30
28683;BME280;15862;43.062;25.626;2023-02-20T02:57:18;100144.16;;;10.99;88.12
28683;BME280;15862;43.062;25.626;2023-02-20T02:59:44;100154.94;;;10.93;90.36
28683;BME280;15862;43.062;25.626;2023-02-20T03:02:13;100153.75;;;10.73;91.85
28683;BME280;15862;43.062;25.626;2023-02-20T03:04:42;100146.84;;;10.74;92.60
28683;BME280;15862;43.062;25.626;2023-02-20T03:07:12;100149.50;;;10.85;92.76
28683;BME280;15862;43.062;25.626;2023-02-20T03:09:44;100156.47;;;10.95;91.78
28683;BME280;15862;43.062;25.626;2023-02-20T03:12:12;100154.44;;;10.88;92.05
28683;BME280;15862;43.062;25.626;2023-02-20T03:14:46;100159.38;;;10.91;91.56
28683;BME280;15862;43.062;25.626;2023-02-20T03:17:38;100155.38;;;10.87;90.42
28683;BME280;15862;43.062;25.626;2023-02-20T03:20:07;100141.91;;;10.94;90.32
28683;BME280;15862;43.062;25.626;2023-02-20T03:22:49;100147.78;;;10.96;89.79
28683;BME280;15862;43.062;25.626;2023-02-20T03:25:25;100137.63;;;10.82;90.11
28683;BME280;15862;43.062;25.626;2023-02-20T03:27:58;100134.81;;;10.85;90.40
28683;BME280;15862;43.062;25.626;2023-02-20T03:30:31;100140.81;;;10.86;89.46
28683;BME280;15862;43.062;25.626;2023-02-20T03:33:10;100154.06;;;10.81;90.28
28683;BME280;15862;43.062;25.626;2023-02-20T03:35:56;100147.53;;;10.76;90.06
28683;BME280;15862;43.062;25.626;2023-02-20T03:38:44;100156.16;;;10.64;91.59
28683;BME280;15862;43.062;25.626;2023-02-20T03:41:31;100147.22;;;10.45;92.39
28683;BME280;15862;43.062;25.626;2023-02-20T03:44:19;100165.22;;;10.34;93.54
28683;BME280;15862;43.062;25.626;2023-02-20T03:46:46;100164.38;;;10.33;94.19
28683;BME280;15862;43.062;25.626;2023-02-20T03:49:15;100168.09;;;10.29;94.35
28683;BME280;15862;43.062;25.626;2023-02-20T03:51:43;100192.38;;;10.27;95.13
28683;BME280;15862;43.062;25.626;2023-02-20T03:54:08;100182.66;;;10.30;94.45
28683;BME280;15862;43.062;25.626;2023-02-20T03:56:42;100157.47;;;10.21;94.45
28683;BME280;15862;43.062;25.626;2023-02-20T03:59:13;100189.88;;;10.38;94.29
28683;BME280;15862;43.062;25.626;2023-02-20T04:01:42;100194.31;;;10.36;94.21
28683;BME280;15862;43.062;25.626;2023-02-20T04:04:15;100197.72;;;10.24;94.67
28683;BME280;15862;43.062;25.626;2023-02-20T04:06:43;100204.25;;;10.17;95.68
28683;BME280;15862;43.062;25.626;2023-02-20T04:09:13;100216.22;;;10.30;94.84
28683;BME280;15862;43.062;25.626;2023-02-20T04:11:57;100223.44;;;10.25;96.13
28683;BME280;15862;43.062;25.626;2023-02-20T04:14:24;100227.16;;;10.21;96.11
28683;BME280;15862;43.062;25.626;2023-02-20T04:16:56;100233.16;;;10.09;97.65
28683;BME280;15862;43.062;25.626;2023-02-20T04:19:23;100212.06;;;10.03;97.36
28683;BME280;15862;43.062;25.626;2023-02-20T04:21:51;100243.06;;;10.15;97.09
28683;BME280;15862;43.062;25.626;2023-02-20T04:24:23;100239.44;;;10.05;96.86
28683;BME280;15862;43.062;25.626;2023-02-20T04:26:51;100248.72;;;10.08;96.86
28683;BME280;15862;43.062;25.626;2023-02-20T04:29:17;100268.44;;;10.09;96.76
28683;BME280;15862;43.062;25.626;2023-02-20T04:31:42;100265.34;;;10.04;97.42
28683;BME280;15862;43.062;25.626;2023-02-20T04:34:08;100274.13;;;10.01;96.95
28683;BME280;15862;43.062;25.626;2023-02-20T04:36:33;100279.38;;;10.00;96.11
28683;BME280;15862;43.062;25.626;2023-02-20T04:38:58;100277.41;;;10.03;95.62
28683;BME280;15862;43.062;25.626;2023-02-20T04:41:24;100277.97;;;10.08;95.04
28683;BME280;15862;43.062;25.626;2023-02-20T04:43:49;100280.84;;;10.04;95.27
28683;BME280;15862;43.062;25.626;2023-02-20T04:46:35;100285.16;;;10.03;95.04
28683;BME280;15862;43.062;25.626;2023-02-20T04:49:00;100291.72;;;9.95;96.29
28683;BME280;15862;43.062;25.626;2023-02-20T04:51:25;100296.03;;;10.08;95.92
28683;BME280;15862;43.062;25.626;2023-02-20T04:53:51;100276.81;;;10.12;94.45
28683;BME280;15862;43.062;25.626;2023-02-20T04:56:16;100294.28;;;10.21;94.42
28683;BME280;15862;43.062;25.626;2023-02-20T04:58:46;100283.34;;;10.18;94.99
28683;BME280;15862;43.062;25.626;2023-02-20T05:01:11;100285.13;;;10.17;95.34
28683;BME280;15862;43.062;25.626;2023-02-20T05:03:36;100292.84;;;10.17;94.91
28683;BME280;15862;43.062;25.626;2023-02-20T05:06:02;100303.66;;;10.10;95.53
28683;BME280;15862;43.062;25.626;2023-02-20T05:08:30;100314.50;;;10.15;94.86
28683;BME280;15862;43.062;25.626;2023-02-20T05:10:55;100319.59;;;10.16;94.10
28683;BME280;15862;43.062;25.626;2023-02-20T05:13:20;100318.25;;;10.23;92.41
28683;BME280;15862;43.062;25.626;2023-02-20T05:15:46;100327.97;;;10.20;91.89
28683;BME280;15862;43.062;25.626;2023-02-20T05:18:11;100352.53;;;10.25;90.70
28683;BME280;15862;43.062;25.626;2023-02-20T05:20:36;100358.53;;;10.26;90.65
28683;BME280;15862;43.062;25.626;2023-02-20T05:23:20;100354.63;;;10.33;89.35
28683;BME280;15862;43.062;25.626;2023-02-20T05:25:45;100368.56;;;10.30;89.27
28683;BME280;15862;43.062;25.626;2023-02-20T05:28:11;100371.25;;;10.29;89.79
28683;BME280;15862;43.062;25.626;2023-02-20T05:30:36;100376.09;;;10.33;88.61
28683;BME280;15862;43.062;25.626;2023-02-20T05:33:02;100380.78;;;10.41;88.25
28683;BME280;15862;43.062;25.626;2023-02-20T05:35:27;100389.38;;;10.54;86.76
28683;BME280;15862;43.062;25.626;2023-02-20T05:37:52;100390.41;;;10.51;86.55
28683;BME280;15862;43.062;25.626;2023-02-20T05:40:18;100393.94;;;10.50;86.51
28683;BME280;15862;43.062;25.626;2023-02-20T05:42:43;100388.03;;;10.48;86.91
28683;BME280;15862;43.062;25.626;2023-02-20T05:45:09;100394.19;;;10.33;87.99
28683;BME280;15862;43.062;25.626;2023-02-20T05:47:36;100401.22;;;10.44;87.87
28683;BME280;15862;43.062;25.626;2023-02-20T05:50:03;100405.69;;;10.54;88.48
28683;BME280;15862;43.062;25.626;2023-02-20T05:52:28;100411.28;;;10.48;88.77
28683;BME280;15862;43.062;25.626;2023-02-20T05:54:53;100383.53;;;10.25;89.13
28683;BME280;15862;43.062;25.626;2023-02-20T05:57:19;100406.06;;;10.36;89.27
28683;BME280;15862;43.062;25.626;2023-02-20T05:59:44;100415.72;;;10.46;89.27
28683;BME280;15862;43.062;25.626;2023-02-20T06:02:10;100397.22;;;10.40;87.65
28683;BME280;15862;43.062;25.626;2023-02-20T06:04:35;100425.38;;;10.57;87.31
28683;BME280;15862;43.062;25.626;2023-02-20T06:07:01;100435.59;;;10.58;87.25
28683;BME280;15862;43.062;25.626;2023-02-20T06:09:26;100417.28;;;10.61;85.56
28683;BME280;15862;43.062;25.626;2023-02-20T06:11:54;100436.31;;;10.72;82.83
28683;BME280;15862;43.062;25.626;2023-02-20T06:14:21;100447.50;;;10.73;81.76
28683;BME280;15862;43.062;25.626;2023-02-20T06:16:47;100450.50;;;10.79;81.87
28683;BME280;15862;43.062;25.626;2023-02-20T06:19:23;100463.38;;;11.06;77.00
28683;BME280;15862;43.062;25.626;2023-02-20T06:21:50;100469.56;;;12.03;69.17
28683;BME280;15862;43.062;25.626;2023-02-20T06:24:17;100466.44;;;13.14;61.28
28683;BME280;15862;43.062;25.626;2023-02-20T06:26:43;100461.44;;;14.10;55.44
28683;BME280;15862;43.062;25.626;2023-02-20T06:29:09;100463.66;;;14.47;52.57
28683;BME280;15862;43.062;25.626;2023-02-20T06:31:35;100469.56;;;14.80;49.77
28683;BME280;15862;43.062;25.626;2023-02-20T06:34:00;100474.56;;;15.13;48.65
28683;BME280;15862;43.062;25.626;2023-02-20T06:36:31;100450.19;;;15.55;46.98
28683;BME280;15862;43.062;25.626;2023-02-20T06:38:59;100453.34;;;15.98;45.13
28683;BME280;15862;43.062;25.626;2023-02-20T06:41:25;100472.47;;;15.78;45.54
28683;BME280;15862;43.062;25.626;2023-02-20T06:43:51;100464.34;;;16.10;45.45
28683;BME280;15862;43.062;25.626;2023-02-20T06:46:16;100474.31;;;17.30;42.99
28683;BME280;15862;43.062;25.626;2023-02-20T06:48:43;100478.31;;;16.96;42.95
28683;BME280;15862;43.062;25.626;2023-02-20T06:51:09;100465.69;;;16.54;44.32
28683;BME280;15862;43.062;25.626;2023-02-20T06:53:34;100470.75;;;17.12;43.74
28683;BME280;15862;43.062;25.626;2023-02-20T06:56:05;100453.63;;;18.09;41.95
28683;BME280;15862;43.062;25.626;2023-02-20T06:58:31;100481.00;;;18.14;40.52
28683;BME280;15862;43.062;25.626;2023-02-20T07:00:57;100477.19;;;17.27;41.47
28683;BME280;15862;43.062;25.626;2023-02-20T07:03:24;100460.56;;;18.00;40.29
28683;BME280;15862;43.062;25.626;2023-02-20T07:05:49;100483.09;;;18.72;39.16
28683;BME280;15862;43.062;25.626;2023-02-20T07:08:15;100485.34;;;19.02;38.13
28683;BME280;15862;43.062;25.626;2023-02-20T07:10:40;100481.50;;;19.31;37.89
28683;BME280;15862;43.062;25.626;2023-02-20T07:13:05;100487.69;;;19.81;36.68
28683;BME280;15862;43.062;25.626;2023-02-20T07:15:31;100488.38;;;20.16;35.86
28683;BME280;15862;43.062;25.626;2023-02-20T07:17:56;100513.94;;;20.72;35.11
28683;BME280;15862;43.062;25.626;2023-02-20T07:20:22;100505.44;;;19.36;36.56
28683;BME280;15862;43.062;25.626;2023-02-20T07:22:51;100519.25;;;19.64;36.06
28683;BME280;15862;43.062;25.626;2023-02-20T07:25:18;100522.69;;;20.31;35.76
28683;BME280;15862;43.062;25.626;2023-02-20T07:27:43;100500.66;;;20.16;35.17
28683;BME280;15862;43.062;25.626;2023-02-20T07:30:09;100520.44;;;19.95;35.27
28683;BME280;15862;43.062;25.626;2023-02-20T07:32:35;100528.94;;;19.46;36.22
28683;BME280;15862;43.062;25.626;2023-02-20T07:35:00;100527.16;;;18.94;36.81
28683;BME280;15862;43.062;25.626;2023-02-20T07:37:26;100534.41;;;19.78;35.95
28683;BME280;15862;43.062;25.626;2023-02-20T07:39:51;100533.94;;;18.97;36.88
28683;BME280;15862;43.062;25.626;2023-02-20T07:42:16;100530.84;;;17.76;38.52
28683;BME280;15862;43.062;25.626;2023-02-20T07:44:45;100534.59;;;16.51;41.30
28683;BME280;15862;43.062;25.626;2023-02-20T07:47:13;100521.31;;;15.76;42.20
28683;BME280;15862;43.062;25.626;2023-02-20T07:49:38;100508.44;;;14.51;44.87
28683;BME280;15862;43.062;25.626;2023-02-20T07:52:03;100530.66;;;13.89;46.67
28683;BME280;15862;43.062;25.626;2023-02-20T07:54:29;100537.41;;;13.13;48.49
28683;BME280;15862;43.062;25.626;2023-02-20T07:56:55;100520.38;;;12.75;49.67
28683;BME280;15862;43.062;25.626;2023-02-20T07:59:21;100512.34;;;12.31;50.20
28683;BME280;15862;43.062;25.626;2023-02-20T08:01:46;100529.75;;;12.42;51.52
28683;BME280;15862;43.062;25.626;2023-02-20T08:04:12;100530.50;;;12.31;51.32
28683;BME280;15862;43.062;25.626;2023-02-20T08:06:37;100528.53;;;12.22;51.95
28683;BME280;15862;43.062;25.626;2023-02-20T08:09:02;100534.69;;;12.09;51.73
28683;BME280;15862;43.062;25.626;2023-02-20T08:11:35;100534.03;;;12.18;52.03
28683;BME280;15862;43.062;25.626;2023-02-20T08:14:02;100559.84;;;12.07;52.01
28683;BME280;15862;43.062;25.626;2023-02-20T08:16:28;100558.09;;;11.95;51.49
28683;BME280;15862;43.062;25.626;2023-02-20T08:18:53;100571.38;;;12.03;51.86
28683;BME280;15862;43.062;25.626;2023-02-20T08:21:20;100570.31;;;12.06;52.05
28683;BME280;15862;43.062;25.626;2023-02-20T08:23:45;100573.06;;;12.40;51.74
28683;BME280;15862;43.062;25.626;2023-02-20T08:26:11;100563.97;;;12.58;50.40
28683;BME280;15862;43.062;25.626;2023-02-20T08:28:36;100573.47;;;12.70;51.31
28683;BME280;15862;43.062;25.626;2023-02-20T08:31:03;100556.16;;;12.94;49.61
28683;BME280;15862;43.062;25.626;2023-02-20T08:33:29;100590.84;;;13.61;49.23
28683;BME280;15862;43.062;25.626;2023-02-20T08:35:55;100580.28;;;14.52;46.81
28683;BME280;15862;43.062;25.626;2023-02-20T08:38:33;100563.63;;;15.17;45.72
28683;BME280;15862;43.062;25.626;2023-02-20T08:40:59;100579.34;;;17.52;40.59
28683;BME280;15862;43.062;25.626;2023-02-20T08:43:26;100580.97;;;19.58;37.30
28683;BME280;15862;43.062;25.626;2023-02-20T08:45:52;100573.03;;;20.68;34.91
28683;BME280;15862;43.062;25.626;2023-02-20T08:48:17;100576.63;;;19.49;36.28
28683;BME280;15862;43.062;25.626;2023-02-20T08:50:43;100581.59;;;19.78;35.77
28683;BME280;15862;43.062;25.626;2023-02-20T08:53:09;100577.63;;;20.66;35.13
28683;BME280;15862;43.062;25.626;2023-02-20T08:55:35;100560.78;;;19.33;35.83
28683;BME280;15862;43.062;25.626;2023-02-20T08:58:00;100565.13;;;18.10;37.51
28683;BME280;15862;43.062;25.626;2023-02-20T09:00:27;100555.06;;;17.78;38.82
28683;BME280;15862;43.062;25.626;2023-02-20T09:02:52;100574.09;;;17.62;38.78
28683;BME280;15862;43.062;25.626;2023-02-20T09:05:18;100568.84;;;16.86;40.22
28683;BME280;15862;43.062;25.626;2023-02-20T09:07:43;100577.09;;;16.03;41.74
28683;BME280;15862;43.062;25.626;2023-02-20T09:10:09;100579.31;;;15.37;42.59
28683;BME280;15862;43.062;25.626;2023-02-20T09:12:35;100590.50;;;15.48;42.91
28683;BME280;15862;43.062;25.626;2023-02-20T09:15:00;100572.59;;;15.55;42.83
28683;BME280;15862;43.062;25.626;2023-02-20T09:17:27;100575.44;;;15.52;42.66
28683;BME280;15862;43.062;25.626;2023-02-20T09:19:52;100548.59;;;15.20;42.70
28683;BME280;15862;43.062;25.626;2023-02-20T09:22:25;100561.09;;;15.37;42.84
28683;BME280;15862;43.062;25.626;2023-02-20T09:24:52;100555.56;;;15.30;43.16
28683;BME280;15862;43.062;25.626;2023-02-20T09:27:18;100548.09;;;14.74;43.76
28683;BME280;15862;43.062;25.626;2023-02-20T09:29:44;100582.84;;;14.62;43.74
28683;BME280;15862;43.062;25.626;2023-02-20T09:32:10;100585.38;;;14.42;44.72
28683;BME280;15862;43.062;25.626;2023-02-20T09:34:36;100598.50;;;14.19;44.73
28683;BME280;15862;43.062;25.626;2023-02-20T09:37:02;100591.88;;;14.37;44.35
28683;BME280;15862;43.062;25.626;2023-02-20T09:39:29;100579.63;;;14.17;45.08
28683;BME280;15862;43.062;25.626;2023-02-20T09:42:16;100600.47;;;14.04;45.04
28683;BME280;15862;43.062;25.626;2023-02-20T09:45:02;100604.97;;;13.91;45.03
28683;BME280;15862;43.062;25.626;2023-02-20T09:50:40;100584.63;;;13.74;45.84
28683;BME280;15862;43.062;25.626;2023-02-20T09:55:40;100601.69;;;14.33;44.92
28683;BME280;15862;43.062;25.626;2023-02-20T09:58:06;100594.09;;;15.98;42.10
28683;BME280;15862;43.062;25.626;2023-02-20T10:00:41;100596.66;;;17.34;38.95
28683;BME280;15862;43.062;25.626;2023-02-20T10:06:00;100612.19;;;18.19;37.13
28683;BME280;15862;43.062;25.626;2023-02-20T10:08:29;100592.72;;;20.64;34.05
28683;BME280;15862;43.062;25.626;2023-02-20T10:10:56;100616.50;;;22.15;31.30
28683;BME280;15862;43.062;25.626;2023-02-20T10:16:25;100611.06;;;20.97;32.77
28683;BME280;15862;43.062;25.626;2023-02-20T10:19:21;100593.13;;;22.20;30.93
28683;BME280;15862;43.062;25.626;2023-02-20T10:22:02;100588.47;;;21.75;31.43
28683;BME280;15862;43.062;25.626;2023-02-20T10:25:02;100584.69;;;21.54;31.38
28683;BME280;15862;43.062;25.626;2023-02-20T10:30:11;100566.75;;;21.18;31.28
28683;BME280;15862;43.062;25.626;2023-02-20T10:32:51;100581.03;;;21.23;31.74
28683;BME280;15862;43.062;25.626;2023-02-20T10:35:31;100566.00;;;20.76;31.54
28683;BME280;15862;43.062;25.626;2023-02-20T10:38:01;100564.41;;;19.32;34.90
28683;BME280;15862;43.062;25.626;2023-02-20T10:41:03;100561.25;;;20.79;32.50
28683;BME280;15862;43.062;25.626;2023-02-20T10:43:37;100570.84;;;22.99;29.70
28683;BME280;15862;43.062;25.626;2023-02-20T10:48:31;100556.06;;;21.43;31.55
28683;BME280;15862;43.062;25.626;2023-02-20T10:51:05;100567.88;;;23.83;28.97
28683;BME280;15862;43.062;25.626;2023-02-20T10:53:48;100549.81;;;24.59;27.11
28683;BME280;15862;43.062;25.626;2023-02-20T10:56:25;100545.56;;;23.49;28.27
28683;BME280;15862;43.062;25.626;2023-02-20T10:59:19;100533.44;;;22.04;29.61
28683;BME280;15862;43.062;25.626;2023-02-20T11:01:47;100538.63;;;23.33;28.69
28683;BME280;15862;43.062;25.626;2023-02-20T11:04:21;100548.88;;;22.53;28.78
28683;BME280;15862;43.062;25.626;2023-02-20T11:06:53;100549.00;;;21.52;30.33
28683;BME280;15862;43.062;25.626;2023-02-20T11:09:20;100557.69;;;21.52;30.13
28683;BME280;15862;43.062;25.626;2023-02-20T11:11:47;100570.16;;;21.90;30.24
28683;BME280;15862;43.062;25.626;2023-02-20T11:14:17;100577.72;;;22.01;30.50
28683;BME280;15862;43.062;25.626;2023-02-20T11:19:25;100569.38;;;21.02;31.03
28683;BME280;15862;43.062;25.626;2023-02-20T11:21:52;100566.75;;;21.57;30.58
28683;BME280;15862;43.062;25.626;2023-02-20T11:26:43;100581.88;;;22.41;28.48
28683;BME280;15862;43.062;25.626;2023-02-20T11:29:12;100574.75;;;21.96;28.85
28683;BME280;15862;43.062;25.626;2023-02-20T11:31:40;100576.97;;;21.60;29.44
28683;BME280;15862;43.062;25.626;2023-02-20T11:34:14;100580.41;;;20.23;31.56
28683;BME280;15862;43.062;25.626;2023-02-20T11:36:46;100574.75;;;18.90;32.85
28683;BME280;15862;43.062;25.626;2023-02-20T11:39:32;100579.66;;;19.54;32.64
28683;BME280;15862;43.062;25.626;2023-02-20T11:42:14;100565.38;;;20.33;31.66
28683;BME280;15862;43.062;25.626;2023-02-20T11:44:40;100576.78;;;21.70;30.13
28683;BME280;15862;43.062;25.626;2023-02-20T11:47:26;100572.47;;;21.37;30.03
28683;BME280;15862;43.062;25.626;2023-02-20T11:50:17;100570.53;;;21.39;30.02
28683;BME280;15862;43.062;25.626;2023-02-20T11:53:19;100571.53;;;21.54;30.16
28683;BME280;15862;43.062;25.626;2023-02-20T11:55:45;100578.50;;;22.55;28.85
28683;BME280;15862;43.062;25.626;2023-02-20T11:58:23;100566.50;;;22.07;29.71
28683;BME280;15862;43.062;25.626;2023-02-20T12:00:51;100540.19;;;22.45;28.83
28683;BME280;15862;43.062;25.626;2023-02-20T12:03:31;100546.16;;;22.39;29.33
28683;BME280;15862;43.062;25.626;2023-02-20T12:06:00;100547.03;;;21.30;30.19
28683;BME280;15862;43.062;25.626;2023-02-20T12:08:43;100539.56;;;21.89;29.36
28683;BME280;15862;43.062;25.626;2023-02-20T12:11:18;100552.44;;;21.76;29.19
28683;BME280;15862;43.062;25.626;2023-02-20T12:13:48;100534.47;;;20.19;30.99
28683;BME280;15862;43.062;25.626;2023-02-20T12:19:09;100535.53;;;20.00;32.13
28683;BME280;15862;43.062;25.626;2023-02-20T12:22:10;100541.41;;;21.41;30.27
28683;BME280;15862;43.062;25.626;2023-02-20T12:39:02;100541.13;;;21.59;28.56
28683;BME280;15862;43.062;25.626;2023-02-20T12:41:40;100533.88;;;22.84;27.77
28683;BME280;15862;43.062;25.626;2023-02-20T12:49:31;100527.69;;;22.09;28.15
28683;BME280;15862;43.062;25.626;2023-02-20T12:59:58;100544.06;;;21.72;28.32
28683;BME280;15862;43.062;25.626;2023-02-20T13:04:59;100543.00;;;20.21;30.64
28683;BME280;15862;43.062;25.626;2023-02-20T13:07:41;100553.31;;;19.89;30.57
28683;BME280;15862;43.062;25.626;2023-02-20T13:10:27;100542.72;;;19.73;30.72
28683;BME280;15862;43.062;25.626;2023-02-20T13:12:54;100544.69;;;19.28;30.82
28683;BME280;15862;43.062;25.626;2023-02-20T13:18:36;100534.13;;;19.63;30.94
28683;BME280;15862;43.062;25.626;2023-02-20T13:21:11;100544.75;;;20.46;29.87
28683;BME280;15862;43.062;25.626;2023-02-20T13:23:38;100541.81;;;20.65;29.74
28683;BME280;15862;43.062;25.626;2023-02-20T13:29:10;100535.19;;;18.58;31.75
28683;BME280;15862;43.062;25.626;2023-02-20T13:46:58;100560.41;;;13.74;39.89
28683;BME280;15862;43.062;25.626;2023-02-20T13:57:31;100557.28;;;13.36;40.40
28683;BME280;15862;43.062;25.626;2023-02-20T13:59:59;100542.88;;;13.32;40.43
28683;BME280;15862;43.062;25.626;2023-02-20T14:02:25;100563.19;;;13.38;39.94
28683;BME280;15862;43.062;25.626;2023-02-20T14:05:02;100542.47;;;13.15;39.83
28683;BME280;15862;43.062;25.626;2023-02-20T14:07:31;100556.97;;;13.17;40.00
28683;BME280;15862;43.062;25.626;2023-02-20T14:10:16;100556.72;;;13.09;40.96
28683;BME280;15862;43.062;25.626;2023-02-20T14:12:42;100554.56;;;13.03;41.10
28683;BME280;15862;43.062;25.626;2023-02-20T14:15:07;100553.16;;;12.99;41.20
28683;BME280;15862;43.062;25.626;2023-02-20T14:17:34;100550.97;;;12.94;40.99
28683;BME280;15862;43.062;25.626;2023-02-20T14:20:05;100558.16;;;12.90;40.88
28683;BME280;15862;43.062;25.626;2023-02-20T14:22:39;100537.13;;;12.82;41.18
28683;BME280;15862;43.062;25.626;2023-02-20T14:27:36;100548.94;;;12.86;40.75
28683;BME280;15862;43.062;25.626;2023-02-20T14:32:33;100547.38;;;12.84;40.92
28683;BME280;15862;43.062;25.626;2023-02-20T14:38:15;100550.97;;;12.94;41.08
28683;BME280;15862;43.062;25.626;2023-02-20T14:40:43;100554.75;;;12.90;41.03
28683;BME280;15862;43.062;25.626;2023-02-20T14:43:18;100545.53;;;12.86;41.18
28683;BME280;15862;43.062;25.626;2023-02-20T14:45:56;100562.41;;;12.91;40.50
28683;BME280;15862;43.062;25.626;2023-02-20T14:48:25;100571.06;;;12.79;40.11